Aldham, United Kingdom
Current Conditions -  °F | °C
As of 8:50 PM on Saturday 22 Nov 2014 (Local Time) from EGUW Reporting Station
Haze Haze  
Wind Chill: 54°   Ceiling: 500
Heat Index: 54°   Visibility: 1.4mi
Dew Point: 54°   Wind: 6mph
Humidity: 100%   Direction: 170°S
Pressure: 29.94"   Gusts: NA
Location:  51.9°N, 0.75°E
Report Text: EGUW 222050Z AUTO 17005KT 2300 BR BKN005/// 12/12 Q1014
Loading
Personal Weather Stations






























Interactive Weather Map New forecast layout! Learn more

10-Day Weather Forecast

Advertisements
Track Severe Weather on mobile